createdAt,value
2017-09-14T00:00:43.073Z,13.30
2017-09-14T00:03:11.477Z,13.30
2017-09-14T00:05:39.119Z,13.30
2017-09-14T00:08:07.777Z,13.40
2017-09-14T00:10:35.342Z,13.40
2017-09-14T00:13:03.098Z,13.40
2017-09-14T00:15:30.709Z,13.40
2017-09-14T00:17:58.282Z,13.40
2017-09-14T00:20:25.890Z,13.40
2017-09-14T00:22:53.479Z,13.50
2017-09-14T00:25:21.848Z,13.50
2017-09-14T00:27:49.484Z,13.50
2017-09-14T00:30:17.056Z,13.50
2017-09-14T00:32:44.656Z,13.50
2017-09-14T00:35:12.232Z,13.50
2017-09-14T00:37:39.818Z,13.40
2017-09-14T00:40:07.382Z,13.40
2017-09-14T00:42:34.982Z,13.30
2017-09-14T00:45:03.319Z,13.00
2017-09-14T00:47:30.881Z,13.00
2017-09-14T00:49:58.466Z,12.90
2017-09-14T00:52:26.038Z,12.90
2017-09-14T00:54:53.613Z,12.90
2017-09-14T00:57:21.945Z,13.00
2017-09-14T00:59:49.534Z,13.00
2017-09-14T01:02:17.105Z,12.90
2017-09-14T01:04:44.701Z,12.90
2017-09-14T01:07:12.282Z,12.90
2017-09-14T01:09:39.883Z,12.90
2017-09-14T01:12:07.447Z,12.90
2017-09-14T01:14:35.038Z,12.90
2017-09-14T01:17:02.640Z,12.80
2017-09-14T01:19:30.218Z,12.70
2017-09-14T01:21:57.792Z,12.60
2017-09-14T01:24:25.505Z,12.60
2017-09-14T01:26:53.095Z,12.50
2017-09-14T01:29:20.664Z,12.50
2017-09-14T01:31:48.274Z,12.50
2017-09-14T01:34:15.817Z,12.40
2017-09-14T01:36:44.204Z,12.40
2017-09-14T01:39:12.518Z,12.40
2017-09-14T01:41:40.122Z,12.30
2017-09-14T01:44:07.706Z,12.50
2017-09-14T01:46:36.079Z,12.50
2017-09-14T01:49:04.417Z,12.40
2017-09-14T01:51:32.005Z,12.40
2017-09-14T01:54:00.312Z,12.40
2017-09-14T01:56:28.674Z,12.50
2017-09-14T01:58:57.016Z,12.60
2017-09-14T02:01:24.609Z,12.60
2017-09-14T02:03:52.224Z,12.60
2017-09-14T02:06:19.846Z,12.60
2017-09-14T02:08:48.172Z,12.50
2017-09-14T02:11:15.803Z,12.50
2017-09-14T02:13:43.365Z,12.40
2017-09-14T02:16:11.798Z,12.40
2017-09-14T02:18:39.787Z,12.30
2017-09-14T02:21:07.410Z,12.10
2017-09-14T02:23:34.965Z,12.10
2017-09-14T02:26:02.580Z,12.00
2017-09-14T02:28:30.949Z,11.80
2017-09-14T02:30:58.563Z,11.70
2017-09-14T02:33:26.147Z,11.80
2017-09-14T02:35:53.719Z,11.70
2017-09-14T02:38:21.331Z,11.70
2017-09-14T02:40:49.750Z,11.90
2017-09-14T02:43:17.327Z,11.80
2017-09-14T02:45:44.879Z,11.90
2017-09-14T02:48:12.466Z,12.00
2017-09-14T02:50:40.069Z,12.00
2017-09-14T02:53:07.643Z,12.00
2017-09-14T02:55:36.120Z,12.00
2017-09-14T02:58:03.699Z,12.10
2017-09-14T03:00:31.271Z,12.20
2017-09-14T03:02:58.861Z,12.10
2017-09-14T03:05:27.228Z,12.30
2017-09-14T03:07:55.013Z,12.30
2017-09-14T03:10:23.371Z,12.40
2017-09-14T03:12:50.960Z,12.30
2017-09-14T03:15:19.408Z,12.40
2017-09-14T03:17:46.974Z,12.40
2017-09-14T03:20:14.598Z,12.40
2017-09-14T03:22:42.158Z,12.40
2017-09-14T03:25:09.796Z,12.40
2017-09-14T03:27:38.201Z,12.60
2017-09-14T03:30:05.758Z,12.60
2017-09-14T03:32:33.367Z,12.60
2017-09-14T03:35:00.919Z,12.60
2017-09-14T03:37:28.574Z,12.60
2017-09-14T03:39:56.200Z,12.60
2017-09-14T03:42:23.806Z,12.60
2017-09-14T03:44:51.442Z,12.60
2017-09-14T03:47:19.071Z,12.60
2017-09-14T03:49:46.668Z,12.60
2017-09-14T03:52:14.259Z,12.60
2017-09-14T03:54:41.931Z,12.60
2017-09-14T03:57:09.519Z,12.60
2017-09-14T03:59:37.862Z,12.60
2017-09-14T04:02:05.447Z,12.60
2017-09-14T04:04:33.826Z,12.70
2017-09-14T04:07:02.159Z,12.60
2017-09-14T04:09:29.743Z,12.60
2017-09-14T04:11:57.322Z,12.60
2017-09-14T04:14:25.762Z,12.60
2017-09-14T04:16:53.323Z,12.60
2017-09-14T04:19:20.943Z,12.70
2017-09-14T04:21:48.530Z,12.70
2017-09-14T04:24:16.118Z,12.70
2017-09-14T04:26:43.717Z,12.60
2017-09-14T04:29:12.194Z,12.60
2017-09-14T04:31:40.516Z,12.70
2017-09-14T04:34:08.197Z,12.60
2017-09-14T04:36:35.857Z,12.70
2017-09-14T04:39:03.442Z,12.60
2017-09-14T04:41:31.018Z,12.60
2017-09-14T04:44:08.496Z,12.70
2017-09-14T04:46:36.062Z,12.60
2017-09-14T04:49:03.638Z,12.60
2017-09-14T04:51:32.003Z,12.40
2017-09-14T04:53:59.607Z,12.40
2017-09-14T04:56:27.194Z,12.30
2017-09-14T04:58:54.786Z,12.30
2017-09-14T05:01:22.370Z,12.20
2017-09-14T05:03:50.693Z,12.10
2017-09-14T05:06:18.278Z,12.10
2017-09-14T05:08:45.987Z,12.10
2017-09-14T05:11:13.558Z,12.10
2017-09-14T05:13:41.130Z,12.10
2017-09-14T05:16:08.703Z,12.10
2017-09-14T05:18:36.332Z,12.20
2017-09-14T05:21:03.975Z,12.20
2017-09-14T05:23:46.739Z,12.20
2017-09-14T05:26:14.655Z,12.30
2017-09-14T05:28:42.987Z,12.30
2017-09-14T05:31:10.619Z,12.30
2017-09-14T05:33:38.217Z,12.40
2017-09-14T05:36:05.798Z,12.40
2017-09-14T05:38:34.155Z,12.50
2017-09-14T05:41:01.713Z,12.40
2017-09-14T05:43:29.284Z,12.50
2017-09-14T05:45:56.868Z,12.50
2017-09-14T05:48:25.333Z,12.40
2017-09-14T05:50:53.667Z,12.40
2017-09-14T05:53:21.234Z,12.40
2017-09-14T05:55:48.805Z,12.40
2017-09-14T05:58:16.396Z,12.50
2017-09-14T06:00:43.982Z,12.50
2017-09-14T06:03:11.707Z,12.40
2017-09-14T06:05:39.438Z,12.50
2017-09-14T06:08:07.043Z,12.40
2017-09-14T06:10:34.599Z,12.50
2017-09-14T06:13:02.194Z,12.40
2017-09-14T06:15:30.502Z,12.30
2017-09-14T06:17:58.082Z,12.30
2017-09-14T06:20:25.656Z,12.30
2017-09-14T06:22:53.209Z,12.30
2017-09-14T06:25:20.822Z,12.40
2017-09-14T06:27:49.161Z,12.30
2017-09-14T06:30:16.706Z,12.30
2017-09-14T06:32:44.370Z,12.30
2017-09-14T06:35:11.926Z,12.20
2017-09-14T06:37:39.574Z,12.20
2017-09-14T06:40:07.913Z,12.20
2017-09-14T06:42:35.502Z,12.20
2017-09-14T06:45:03.075Z,12.20
2017-09-14T06:47:30.698Z,12.20
2017-09-14T06:49:59.064Z,12.50
2017-09-14T06:52:26.677Z,12.50
2017-09-14T06:54:54.246Z,12.70
2017-09-14T06:57:21.806Z,12.80
2017-09-14T06:59:49.413Z,12.80
2017-09-14T07:02:17.759Z,12.70
2017-09-14T07:04:45.347Z,12.70
2017-09-14T07:07:12.943Z,12.60
2017-09-14T07:09:41.283Z,12.40
2017-09-14T07:12:08.885Z,12.40
2017-09-14T07:14:37.209Z,12.30
2017-09-14T07:17:04.856Z,12.30
2017-09-14T07:19:32.469Z,12.20
2017-09-14T07:22:00.813Z,12.20
2017-09-14T07:24:28.407Z,12.20
2017-09-14T07:26:56.737Z,12.20
2017-09-14T07:29:24.322Z,12.20
2017-09-14T07:31:51.976Z,12.30
2017-09-14T07:34:19.541Z,12.30
2017-09-14T07:36:47.131Z,12.40
2017-09-14T07:39:15.588Z,12.60
2017-09-14T07:41:43.227Z,12.50
2017-09-14T07:44:10.810Z,12.70
2017-09-14T07:46:38.402Z,12.70
2017-09-14T07:49:06.748Z,12.70
2017-09-14T07:51:34.355Z,12.70
2017-09-14T07:54:02.702Z,12.90
2017-09-14T07:56:30.299Z,12.80
2017-09-14T07:58:58.626Z,13.00
2017-09-14T08:01:26.230Z,13.00
2017-09-14T08:03:54.615Z,13.10
2017-09-14T08:06:22.952Z,13.30
2017-09-14T08:08:50.543Z,13.30
2017-09-14T08:11:18.141Z,13.40
2017-09-14T08:13:45.716Z,13.50
2017-09-14T08:16:13.347Z,13.80
2017-09-14T08:18:41.704Z,13.90
2017-09-14T08:21:09.267Z,13.90
2017-09-14T08:23:37.634Z,14.10
2017-09-14T08:26:05.196Z,14.10
2017-09-14T08:28:32.784Z,14.10
2017-09-14T08:31:01.118Z,13.90
2017-09-14T08:33:28.759Z,13.90
2017-09-14T08:35:56.334Z,13.80
2017-09-14T08:38:23.895Z,13.80
2017-09-14T08:40:51.538Z,13.80
2017-09-14T08:43:19.094Z,13.80
2017-09-14T08:45:46.683Z,14.00
2017-09-14T08:48:15.158Z,14.20
2017-09-14T08:50:42.747Z,14.10
2017-09-14T08:53:10.353Z,14.00
2017-09-14T08:55:38.683Z,14.20
2017-09-14T08:58:06.327Z,14.10
2017-09-14T09:00:33.895Z,14.60
2017-09-14T09:03:01.481Z,14.40
2017-09-14T09:05:29.819Z,14.30
2017-09-14T09:07:57.400Z,14.30
2017-09-14T09:10:24.994Z,14.60
2017-09-14T09:12:53.338Z,14.50
2017-09-14T09:15:20.918Z,14.50
2017-09-14T09:17:48.490Z,14.20
2017-09-14T09:20:17.068Z,14.70
2017-09-14T09:22:44.649Z,14.70
2017-09-14T09:25:12.254Z,16.00
2017-09-14T09:27:39.818Z,17.40
2017-09-14T09:30:07.403Z,18.10
2017-09-14T09:32:35.004Z,17.50
2017-09-14T09:35:03.334Z,16.10
2017-09-14T09:37:30.987Z,16.10
2017-09-14T09:39:58.549Z,16.40
2017-09-14T09:42:26.114Z,17.50
2017-09-14T09:44:53.695Z,17.40
2017-09-14T09:47:21.277Z,17.90
2017-09-14T09:49:48.918Z,18.90
2017-09-14T09:52:16.547Z,17.60
2017-09-14T09:54:44.133Z,16.90
2017-09-14T09:57:11.703Z,16.30
2017-09-14T09:59:39.310Z,15.60
2017-09-14T10:02:07.648Z,15.10
2017-09-14T10:04:35.231Z,15.00
2017-09-14T10:07:03.556Z,14.60
2017-09-14T10:09:31.138Z,14.60
2017-09-14T10:11:58.782Z,14.60
2017-09-14T10:14:26.423Z,14.80
2017-09-14T10:16:55.100Z,15.20
2017-09-14T10:19:23.437Z,14.70
2017-09-14T10:21:51.050Z,14.70
2017-09-14T10:24:19.434Z,15.20
2017-09-14T10:26:47.025Z,15.10
2017-09-14T10:29:14.640Z,15.40
2017-09-14T10:31:44.106Z,14.80
2017-09-14T10:34:11.683Z,14.80
2017-09-14T10:36:40.011Z,14.90
2017-09-14T10:39:07.589Z,14.90
2017-09-14T10:41:35.166Z,15.20
2017-09-14T10:44:02.771Z,15.20
2017-09-14T10:46:32.065Z,14.40
2017-09-14T10:48:59.646Z,14.40
2017-09-14T10:51:28.039Z,12.90
2017-09-14T10:53:56.387Z,12.60
2017-09-14T10:56:23.980Z,12.60
2017-09-14T10:58:51.759Z,12.60
2017-09-14T11:01:19.339Z,12.60
2017-09-14T11:03:46.932Z,12.60
2017-09-14T11:06:14.525Z,13.00
2017-09-14T11:08:42.876Z,13.70
2017-09-14T11:11:10.472Z,13.70
2017-09-14T11:13:38.051Z,13.90
2017-09-14T11:16:05.607Z,14.10
2017-09-14T11:18:33.200Z,14.10
2017-09-14T11:21:00.991Z,13.90
2017-09-14T11:23:28.611Z,13.80
2017-09-14T11:25:56.979Z,13.80
2017-09-14T11:28:25.348Z,13.70
2017-09-14T11:30:53.697Z,13.90
2017-09-14T11:33:21.279Z,13.90
2017-09-14T11:35:48.918Z,14.20
2017-09-14T11:38:16.521Z,15.30
2017-09-14T11:40:44.854Z,15.40
2017-09-14T11:43:12.472Z,15.30
2017-09-14T11:45:40.844Z,16.30
2017-09-14T11:48:09.181Z,16.90
2017-09-14T11:50:36.736Z,16.90
2017-09-14T11:53:04.520Z,17.30
2017-09-14T11:55:32.078Z,17.50
2017-09-14T11:57:59.694Z,17.90
2017-09-14T12:00:27.365Z,18.20
2017-09-14T12:02:54.933Z,18.10
2017-09-14T12:05:22.520Z,19.30
2017-09-14T12:07:50.164Z,18.70
2017-09-14T12:10:17.763Z,18.90
2017-09-14T12:12:46.095Z,19.00
2017-09-14T12:15:13.694Z,19.00
2017-09-14T12:17:41.271Z,19.80
2017-09-14T12:20:08.869Z,19.20
2017-09-14T12:22:37.314Z,19.60
2017-09-14T12:25:04.906Z,19.60
2017-09-14T12:27:34.507Z,18.50
2017-09-14T12:30:02.944Z,17.80
2017-09-14T12:32:30.622Z,17.70
2017-09-14T12:34:58.198Z,16.80
2017-09-14T12:37:25.819Z,14.70
2017-09-14T12:39:53.409Z,13.10
2017-09-14T12:42:21.070Z,12.60
2017-09-14T12:44:49.691Z,12.10
2017-09-14T12:47:17.320Z,12.10
2017-09-14T12:49:49.205Z,12.60
2017-09-14T12:55:20.410Z,12.80
2017-09-14T12:57:48.008Z,13.20
2017-09-14T13:00:16.363Z,14.80
2017-09-14T13:02:43.944Z,14.80
2017-09-14T13:05:11.554Z,15.40
2017-09-14T13:07:39.311Z,15.70
2017-09-14T13:10:10.817Z,16.10
2017-09-14T13:12:38.404Z,16.50
2017-09-14T13:15:06.045Z,15.60
2017-09-14T13:17:33.721Z,15.30
2017-09-14T13:20:02.113Z,15.60
2017-09-14T13:22:29.812Z,15.60
2017-09-14T13:24:57.382Z,16.10
2017-09-14T13:27:24.971Z,15.70
2017-09-14T13:29:52.536Z,15.20
2017-09-14T13:32:20.126Z,14.60
2017-09-14T13:34:48.607Z,14.00
2017-09-14T13:37:16.201Z,14.00
2017-09-14T13:39:43.829Z,14.20
2017-09-14T13:42:12.167Z,14.50
2017-09-14T13:44:39.763Z,14.50
2017-09-14T13:47:08.182Z,14.20
2017-09-14T13:49:35.822Z,14.20
2017-09-14T13:52:03.502Z,14.30
2017-09-14T13:54:31.150Z,14.30
2017-09-14T13:56:58.716Z,14.10
2017-09-14T13:59:26.362Z,14.00
2017-09-14T14:01:53.943Z,13.80
2017-09-14T14:04:21.519Z,13.70
2017-09-14T14:06:49.119Z,13.90
2017-09-14T14:09:16.699Z,13.90
2017-09-14T14:11:44.287Z,13.80
2017-09-14T14:14:12.049Z,13.70
2017-09-14T14:16:39.621Z,13.90
2017-09-14T14:19:07.179Z,13.70
2017-09-14T14:21:34.840Z,13.60
2017-09-14T14:24:02.546Z,13.60
2017-09-14T14:26:30.262Z,13.60
2017-09-14T14:28:57.876Z,13.50
2017-09-14T14:31:25.464Z,13.50
2017-09-14T14:33:53.026Z,13.40
2017-09-14T14:36:20.616Z,13.30
2017-09-14T14:38:49.058Z,13.10
2017-09-14T14:41:16.639Z,13.10
2017-09-14T14:43:44.223Z,13.10
2017-09-14T14:46:12.578Z,13.00
2017-09-14T14:48:40.155Z,13.00
2017-09-14T14:51:08.030Z,12.90
2017-09-14T14:53:35.703Z,12.90
2017-09-14T14:56:03.272Z,12.80
2017-09-14T14:58:31.073Z,12.80
2017-09-14T15:00:58.659Z,12.60
2017-09-14T15:03:36.806Z,12.50
2017-09-14T15:06:04.397Z,12.50
2017-09-14T15:08:31.998Z,12.50
2017-09-14T15:10:59.573Z,12.50
2017-09-14T15:13:28.035Z,12.40
2017-09-14T15:15:56.717Z,12.40
2017-09-14T15:18:24.348Z,12.20
2017-09-14T15:20:53.385Z,12.10
2017-09-14T15:23:20.973Z,11.90
2017-09-14T15:25:49.341Z,11.90
2017-09-14T15:28:23.838Z,11.70
2017-09-14T15:30:51.414Z,11.70
2017-09-14T15:33:19.000Z,10.80
2017-09-14T15:35:47.379Z,10.40
2017-09-14T15:38:15.807Z,10.20
2017-09-14T15:40:49.146Z,10.20
2017-09-14T15:43:23.079Z,10.20
2017-09-14T15:45:50.674Z,10.20
2017-09-14T15:48:23.920Z,10.20
2017-09-14T15:50:57.910Z,10.30
2017-09-14T15:53:32.321Z,10.30
2017-09-14T15:55:59.938Z,10.30
2017-09-14T15:58:27.546Z,10.40
2017-09-14T16:00:55.127Z,10.50
2017-09-14T16:03:23.538Z,10.50
2017-09-14T16:05:51.310Z,10.40
2017-09-14T16:08:18.937Z,10.50
2017-09-14T16:10:46.525Z,10.50
2017-09-14T16:13:14.130Z,10.50
2017-09-14T16:15:41.746Z,10.50
2017-09-14T16:18:10.141Z,10.50
2017-09-14T16:20:37.726Z,10.50
2017-09-14T16:23:05.390Z,10.50
2017-09-14T16:25:33.014Z,10.50
2017-09-14T16:28:01.385Z,10.50
2017-09-14T16:30:29.751Z,10.50
2017-09-14T16:32:57.433Z,10.50
2017-09-14T16:35:25.761Z,10.50
2017-09-14T16:37:53.354Z,10.50
2017-09-14T16:40:21.001Z,10.50
2017-09-14T16:42:48.565Z,10.50
2017-09-14T16:45:16.138Z,10.60
2017-09-14T16:47:43.760Z,10.60
2017-09-14T16:50:15.195Z,10.50
2017-09-14T16:52:44.183Z,10.60
2017-09-14T16:55:11.806Z,10.60
2017-09-14T16:57:39.442Z,10.60
2017-09-14T17:00:07.075Z,10.60
2017-09-14T17:02:34.688Z,10.60
2017-09-14T17:05:02.293Z,10.60
2017-09-14T17:07:30.755Z,10.60
2017-09-14T17:09:59.163Z,10.60
2017-09-14T17:12:29.071Z,10.60
2017-09-14T17:14:57.489Z,10.60
2017-09-14T17:17:25.107Z,10.60
2017-09-14T17:19:52.750Z,10.70
2017-09-14T17:22:20.397Z,10.70
2017-09-14T17:24:48.022Z,10.80
2017-09-14T17:27:15.635Z,10.70
2017-09-14T17:29:43.290Z,10.80
2017-09-14T17:32:10.897Z,10.80
2017-09-14T17:34:39.217Z,10.90
2017-09-14T17:37:06.818Z,10.90
2017-09-14T17:39:35.259Z,10.90
2017-09-14T17:42:02.848Z,10.90
2017-09-14T17:44:30.465Z,10.90
2017-09-14T17:47:06.075Z,10.90
2017-09-14T17:49:33.829Z,10.90
2017-09-14T17:52:01.407Z,10.90
2017-09-14T17:54:29.838Z,11.00
2017-09-14T17:56:57.493Z,10.90
2017-09-14T17:59:25.095Z,11.00
2017-09-14T18:01:52.689Z,11.00
2017-09-14T18:04:20.571Z,11.00
2017-09-14T18:06:48.449Z,11.00
2017-09-14T18:09:16.109Z,11.00
2017-09-14T18:11:43.723Z,11.00
2017-09-14T18:14:11.347Z,11.00
2017-09-14T18:16:39.117Z,11.00
2017-09-14T18:19:16.806Z,11.00
2017-09-14T18:21:44.443Z,11.00
2017-09-14T18:24:12.042Z,11.00
2017-09-14T18:26:39.736Z,11.10
2017-09-14T18:29:07.368Z,11.10
2017-09-14T18:31:35.016Z,11.10
2017-09-14T18:34:03.381Z,11.10
2017-09-14T18:36:31.717Z,11.10
2017-09-14T18:38:59.349Z,11.10
2017-09-14T18:41:26.983Z,11.20
2017-09-14T18:43:55.425Z,11.20
2017-09-14T18:46:23.091Z,11.20
2017-09-14T18:48:51.579Z,11.20
2017-09-14T18:51:19.911Z,11.20
2017-09-14T18:53:48.656Z,11.20
2017-09-14T18:56:16.856Z,11.30
2017-09-14T18:58:45.261Z,11.30
2017-09-14T19:01:14.050Z,11.30
2017-09-14T19:03:41.917Z,11.30
2017-09-14T19:06:09.740Z,11.30
2017-09-14T19:08:38.549Z,11.30
2017-09-14T19:11:06.468Z,11.30
2017-09-14T19:13:34.626Z,11.30
2017-09-14T19:16:02.518Z,11.30
2017-09-14T19:18:30.210Z,11.40
2017-09-14T19:20:57.804Z,11.40
2017-09-14T19:23:25.448Z,11.40
2017-09-14T19:25:54.440Z,11.40
2017-09-14T19:28:23.047Z,11.40
2017-09-14T19:30:51.486Z,11.40
2017-09-14T19:33:20.504Z,11.40
2017-09-14T19:35:48.297Z,11.40
2017-09-14T19:38:18.116Z,11.40
2017-09-14T19:40:45.929Z,11.40
2017-09-14T19:43:15.070Z,11.40
2017-09-14T19:45:42.943Z,11.40
2017-09-14T19:48:10.647Z,11.40
2017-09-14T19:50:38.869Z,11.40
2017-09-14T19:53:07.486Z,11.40
2017-09-14T19:55:35.225Z,11.40
2017-09-14T19:58:03.339Z,11.40
2017-09-14T20:00:31.178Z,11.40
2017-09-14T20:02:59.449Z,11.40
2017-09-14T20:05:28.121Z,11.40
2017-09-14T20:07:55.815Z,11.40
2017-09-14T20:10:23.401Z,11.40
2017-09-14T20:12:52.295Z,11.40
2017-09-14T20:15:20.647Z,11.40
2017-09-14T20:17:49.459Z,11.40
2017-09-14T20:20:17.807Z,11.40
2017-09-14T20:22:46.637Z,11.40
2017-09-14T20:25:15.127Z,11.40
2017-09-14T20:27:43.569Z,11.40
2017-09-14T20:30:11.172Z,11.40
2017-09-14T20:32:40.383Z,11.40
2017-09-14T20:35:08.738Z,11.40
2017-09-14T20:37:36.312Z,11.30
2017-09-14T20:40:05.706Z,11.50
2017-09-14T20:42:33.335Z,11.40
2017-09-14T20:45:02.153Z,11.50
2017-09-14T20:47:31.147Z,11.40
2017-09-14T20:49:58.789Z,11.40
2017-09-14T20:52:26.343Z,11.40
2017-09-14T20:54:53.938Z,11.40
2017-09-14T20:57:21.638Z,11.40
2017-09-14T20:59:51.199Z,11.40
2017-09-14T21:02:19.728Z,11.40
2017-09-14T21:04:47.410Z,11.40
2017-09-14T21:07:16.143Z,11.40
2017-09-14T21:09:44.923Z,11.40
2017-09-14T21:12:12.512Z,11.40
2017-09-14T21:14:41.951Z,11.50
2017-09-14T21:17:10.752Z,11.50
2017-09-14T21:19:38.372Z,11.50
2017-09-14T21:22:06.715Z,11.50
2017-09-14T21:24:35.559Z,11.40
2017-09-14T21:27:03.407Z,11.50
2017-09-14T21:29:31.456Z,11.50
2017-09-14T21:31:59.091Z,11.50
2017-09-14T21:34:27.180Z,11.50
2017-09-14T21:36:54.992Z,11.40
2017-09-14T21:39:22.565Z,11.40
2017-09-14T21:41:51.035Z,11.40
2017-09-14T21:44:21.878Z,11.40
2017-09-14T21:46:49.485Z,11.40
2017-09-14T21:49:17.086Z,11.40
2017-09-14T21:51:44.665Z,11.40
2017-09-14T21:54:12.483Z,11.30
2017-09-14T21:56:40.141Z,11.30
2017-09-14T21:59:07.794Z,11.30
2017-09-14T22:01:35.359Z,11.30
2017-09-14T22:04:02.947Z,11.20
2017-09-14T22:06:30.566Z,11.20
2017-09-14T22:08:58.216Z,11.10
2017-09-14T22:11:26.608Z,11.10
2017-09-14T22:13:55.003Z,11.10
2017-09-14T22:16:22.730Z,11.10
2017-09-14T22:18:50.326Z,11.20
2017-09-14T22:21:17.908Z,11.20
2017-09-14T22:23:45.494Z,11.20
2017-09-14T22:26:13.115Z,11.20
2017-09-14T22:28:40.722Z,11.20
2017-09-14T22:31:08.314Z,11.20
2017-09-14T22:33:36.778Z,11.10
2017-09-14T22:36:04.532Z,11.00
2017-09-14T22:38:32.275Z,11.00
2017-09-14T22:41:00.229Z,11.10
2017-09-14T22:43:27.976Z,11.00
2017-09-14T22:45:55.780Z,10.90
2017-09-14T22:48:23.490Z,10.90
2017-09-14T22:50:51.951Z,10.90
2017-09-14T22:53:19.790Z,10.90
2017-09-14T22:55:47.491Z,11.00
2017-09-14T22:58:15.306Z,11.00
2017-09-14T23:00:43.242Z,11.00
2017-09-14T23:03:10.906Z,11.00
2017-09-14T23:05:39.313Z,10.90
2017-09-14T23:08:07.071Z,10.80
2017-09-14T23:10:34.735Z,10.80
2017-09-14T23:13:02.498Z,10.80
2017-09-14T23:15:30.188Z,10.90
2017-09-14T23:17:57.919Z,10.90
2017-09-14T23:20:26.444Z,10.70
2017-09-14T23:22:54.199Z,10.70
2017-09-14T23:25:22.107Z,10.70
2017-09-14T23:27:50.563Z,10.90
2017-09-14T23:30:18.271Z,10.90
2017-09-14T23:32:47.037Z,10.90
2017-09-14T23:35:15.491Z,10.90
2017-09-14T23:37:43.234Z,10.90
2017-09-14T23:40:11.118Z,10.90
2017-09-14T23:42:38.960Z,10.80
2017-09-14T23:45:06.743Z,10.70
2017-09-14T23:47:34.781Z,10.60
2017-09-14T23:50:03.450Z,10.50
2017-09-14T23:52:31.136Z,10.40
2017-09-14T23:54:59.543Z,10.30
2017-09-14T23:57:27.345Z,10.20
2017-09-14T23:59:55.061Z,10.20
